createdAt,value
2022-12-04T00:00:03.762Z,12.83
2022-12-04T00:02:30.768Z,11.73
2022-12-04T00:04:57.584Z,12.23
2022-12-04T00:07:24.315Z,12.77
2022-12-04T00:09:51.017Z,13.93
2022-12-04T00:12:17.676Z,12.97
2022-12-04T00:15:16.586Z,12.33
2022-12-04T00:17:31.138Z,13.07
2022-12-04T00:19:57.779Z,12.17
2022-12-04T00:22:24.469Z,11.93
2022-12-04T00:24:53.367Z,13.03
2022-12-04T00:27:20.086Z,13.10
2022-12-04T00:29:50.058Z,13.07
2022-12-04T00:32:16.818Z,13.40
2022-12-04T00:34:43.571Z,12.07
2022-12-04T00:37:10.340Z,13.87
2022-12-04T00:39:37.092Z,12.87
2022-12-04T00:42:03.895Z,12.60
2022-12-04T00:44:30.558Z,11.87
2022-12-04T00:46:57.210Z,12.40
2022-12-04T00:49:23.949Z,12.93
2022-12-04T00:51:50.625Z,11.73
2022-12-04T00:54:17.333Z,11.17
2022-12-04T00:56:44.079Z,12.13
2022-12-04T00:59:11.125Z,14.80
2022-12-04T01:01:37.927Z,11.03
2022-12-04T01:04:04.686Z,11.90
2022-12-04T01:06:33.382Z,12.10
2022-12-04T01:09:02.002Z,12.77
2022-12-04T01:11:29.597Z,11.87
2022-12-04T01:13:57.396Z,12.10
2022-12-04T01:16:27.262Z,12.07
2022-12-04T01:18:54.272Z,11.67
2022-12-04T01:21:21.122Z,11.50
2022-12-04T01:23:47.964Z,12.50
2022-12-04T01:26:15.064Z,13.43
2022-12-04T01:28:41.750Z,12.80
2022-12-04T01:31:19.642Z,12.50
2022-12-04T01:33:47.489Z,12.87
2022-12-04T01:36:16.766Z,12.83
2022-12-04T01:38:44.096Z,11.37
2022-12-04T01:41:11.890Z,10.70
2022-12-04T01:43:39.298Z,10.53
2022-12-04T01:46:06.601Z,12.37
2022-12-04T01:48:46.267Z,9.57
2022-12-04T01:51:34.613Z,11.97
2022-12-04T01:54:04.199Z,12.53
2022-12-04T01:56:43.307Z,11.57
2022-12-04T01:59:12.907Z,12.40
2022-12-04T02:01:46.891Z,13.20
2022-12-04T02:04:13.617Z,12.37
2022-12-04T02:06:40.334Z,12.40
2022-12-04T02:09:08.028Z,10.43
2022-12-04T02:11:42.057Z,11.10
2022-12-04T02:14:25.317Z,11.03
2022-12-04T02:17:13.459Z,11.50
2022-12-04T02:19:46.310Z,10.27
2022-12-04T02:22:41.674Z,11.83
2022-12-04T02:25:21.348Z,11.83
2022-12-04T02:28:16.360Z,12.13
2022-12-04T02:30:43.997Z,11.30
2022-12-04T02:33:26.170Z,10.63
2022-12-04T02:36:07.118Z,11.60
2022-12-04T02:38:40.967Z,11.33
2022-12-04T02:41:20.350Z,12.03
2022-12-04T02:43:52.676Z,10.67
2022-12-04T02:46:46.679Z,10.27
2022-12-04T02:49:19.624Z,11.50
2022-12-04T02:51:47.893Z,13.03
2022-12-04T02:54:24.878Z,11.87
2022-12-04T02:56:53.015Z,13.00
2022-12-04T02:59:27.027Z,10.53
2022-12-04T03:01:57.978Z,11.50
2022-12-04T03:04:30.771Z,10.17
2022-12-04T03:07:02.534Z,10.67
2022-12-04T03:10:07.780Z,10.90
2022-12-04T03:12:46.821Z,10.67
2022-12-04T03:15:28.926Z,11.00
2022-12-04T03:18:07.408Z,12.30
2022-12-04T03:20:35.340Z,11.30
2022-12-04T03:23:23.085Z,10.87
2022-12-04T03:26:16.934Z,10.77
2022-12-04T03:28:48.765Z,11.73
2022-12-04T03:31:18.808Z,10.90
2022-12-04T03:33:46.883Z,12.67
2022-12-04T03:36:29.391Z,13.20
2022-12-04T03:39:09.094Z,9.90
2022-12-04T03:41:51.069Z,11.63
2022-12-04T03:44:27.773Z,11.53
2022-12-04T03:46:59.269Z,11.70
2022-12-04T03:49:53.136Z,11.97
2022-12-04T03:52:23.504Z,12.27
2022-12-04T03:54:54.123Z,11.17
2022-12-04T03:57:25.942Z,11.43
2022-12-04T04:00:09.993Z,11.60
2022-12-04T04:02:40.202Z,12.77
2022-12-04T04:05:09.193Z,11.80
2022-12-04T04:08:22.351Z,11.00
2022-12-04T04:10:49.670Z,11.20
2022-12-04T04:13:45.909Z,11.97
2022-12-04T04:16:33.186Z,11.43
2022-12-04T04:19:19.464Z,11.90
2022-12-04T04:22:09.207Z,11.37
2022-12-04T04:24:45.135Z,13.17
2022-12-04T04:27:12.522Z,12.50
2022-12-04T04:29:39.629Z,11.83
2022-12-04T04:32:38.100Z,11.90
2022-12-04T04:35:21.599Z,11.40
2022-12-04T04:38:02.583Z,11.70
2022-12-04T04:40:29.184Z,10.83
2022-12-04T04:43:20.347Z,11.53
2022-12-04T04:45:58.255Z,12.50
2022-12-04T04:48:42.364Z,11.97
2022-12-04T04:51:09.644Z,12.00
2022-12-04T04:53:44.500Z,13.33
2022-12-04T04:56:11.607Z,12.53
2022-12-04T04:58:38.261Z,12.33
2022-12-04T05:01:06.065Z,13.83
2022-12-04T05:03:33.039Z,12.50
2022-12-04T05:05:59.640Z,11.77
2022-12-04T05:08:26.396Z,12.20
2022-12-04T05:10:56.738Z,11.83
2022-12-04T05:13:23.475Z,12.73
2022-12-04T05:16:05.514Z,12.50
2022-12-04T05:18:33.563Z,12.60
2022-12-04T05:21:02.993Z,12.30
2022-12-04T05:23:29.599Z,12.97
2022-12-04T05:26:00.611Z,11.90
2022-12-04T05:28:27.821Z,12.30
2022-12-04T05:30:56.366Z,12.00
2022-12-04T05:33:23.681Z,11.80
2022-12-04T05:36:01.302Z,11.17
2022-12-04T05:38:28.116Z,11.93
2022-12-04T05:40:54.750Z,11.73
2022-12-04T05:43:21.364Z,13.90
2022-12-04T05:45:47.967Z,12.57
2022-12-04T05:48:15.304Z,12.60
2022-12-04T05:50:42.106Z,13.17
2022-12-04T05:53:08.775Z,13.00
2022-12-04T05:55:35.456Z,12.57
2022-12-04T05:58:02.487Z,10.80
2022-12-04T06:00:29.548Z,12.07
2022-12-04T06:02:56.245Z,12.20
2022-12-04T06:05:22.934Z,11.83
2022-12-04T06:07:49.571Z,12.53
2022-12-04T06:10:16.347Z,13.13
2022-12-04T06:12:42.944Z,11.67
2022-12-04T06:15:10.019Z,12.77
2022-12-04T06:17:36.628Z,11.93
2022-12-04T06:20:09.585Z,11.80
2022-12-04T06:22:38.007Z,11.83
2022-12-04T06:25:04.890Z,11.63
2022-12-04T06:27:31.532Z,12.23
2022-12-04T06:29:58.532Z,11.13
2022-12-04T06:32:25.517Z,12.60
2022-12-04T06:34:53.254Z,11.40
2022-12-04T06:37:21.248Z,11.83
2022-12-04T06:39:47.922Z,12.27
2022-12-04T06:42:14.703Z,12.57
2022-12-04T06:44:41.335Z,12.63
2022-12-04T06:47:08.796Z,10.90
2022-12-04T06:49:36.120Z,11.27
2022-12-04T06:52:03.317Z,11.67
2022-12-04T06:54:29.968Z,10.77
2022-12-04T06:56:56.653Z,11.83
2022-12-04T06:59:23.782Z,11.33
2022-12-04T07:01:50.621Z,10.83
2022-12-04T07:04:17.376Z,11.50
2022-12-04T07:06:43.981Z,10.90
2022-12-04T07:09:14.741Z,11.83
2022-12-04T07:11:42.320Z,11.17
2022-12-04T07:14:09.572Z,10.77
2022-12-04T07:16:40.727Z,10.73
2022-12-04T07:19:11.670Z,10.73
2022-12-04T07:21:38.416Z,9.73
2022-12-04T07:24:05.892Z,10.27
2022-12-04T07:26:32.712Z,11.37
2022-12-04T07:28:59.917Z,10.57
2022-12-04T07:31:28.071Z,10.50
2022-12-04T07:33:55.326Z,11.00
2022-12-04T07:36:23.237Z,11.50
2022-12-04T07:38:50.593Z,9.87
2022-12-04T07:41:18.200Z,11.90
2022-12-04T07:43:44.880Z,10.80
2022-12-04T07:46:17.738Z,10.10
2022-12-04T07:48:44.375Z,11.13
2022-12-04T07:51:14.042Z,9.93
2022-12-04T07:53:40.954Z,10.37
2022-12-04T07:56:08.312Z,11.17
2022-12-04T07:58:35.018Z,11.03
2022-12-04T08:01:22.465Z,9.80
2022-12-04T08:03:50.716Z,11.53
2022-12-04T08:06:19.082Z,10.00
2022-12-04T08:08:46.566Z,11.33
2022-12-04T08:11:16.015Z,12.20
2022-12-04T08:13:42.815Z,10.07
2022-12-04T08:16:10.824Z,10.37
2022-12-04T08:18:37.979Z,10.10
2022-12-04T08:21:05.942Z,11.33
2022-12-04T08:23:32.651Z,11.27
2022-12-04T08:26:03.392Z,10.37
2022-12-04T08:28:30.228Z,10.73
2022-12-04T08:31:13.800Z,12.00
2022-12-04T08:33:41.790Z,9.80
2022-12-04T08:36:14.409Z,10.40
2022-12-04T08:38:43.797Z,10.37
2022-12-04T08:41:13.602Z,10.50
2022-12-04T08:43:40.668Z,10.40
2022-12-04T08:46:10.078Z,10.07
2022-12-04T08:48:37.268Z,11.27
2022-12-04T08:51:04.339Z,11.07
2022-12-04T08:53:32.025Z,11.37
2022-12-04T08:56:00.870Z,10.07
2022-12-04T08:58:27.469Z,10.73
2022-12-04T09:00:54.102Z,11.43
2022-12-04T09:03:26.060Z,10.07
2022-12-04T09:05:58.974Z,11.50
2022-12-04T09:08:25.797Z,11.27
2022-12-04T09:10:52.420Z,10.87
2022-12-04T09:13:19.151Z,10.33
2022-12-04T09:15:45.822Z,13.03
2022-12-04T09:18:12.455Z,11.37
2022-12-04T09:20:39.103Z,10.60
2022-12-04T09:23:05.814Z,13.23
2022-12-04T09:25:36.375Z,10.87
2022-12-04T09:28:03.206Z,12.77
2022-12-04T09:30:29.839Z,11.67
2022-12-04T09:32:56.431Z,11.47
2022-12-04T09:35:23.160Z,10.73
2022-12-04T09:37:49.772Z,11.83
2022-12-04T09:40:37.708Z,11.03
2022-12-04T09:43:21.353Z,10.60
2022-12-04T09:45:51.943Z,12.37
2022-12-04T09:48:19.743Z,12.17
2022-12-04T09:50:48.175Z,9.60
2022-12-04T09:53:17.576Z,9.23
2022-12-04T09:56:04.270Z,11.00
2022-12-04T09:58:53.811Z,12.03
2022-12-04T10:01:25.691Z,9.97
2022-12-04T10:03:54.112Z,9.73
2022-12-04T10:06:27.721Z,10.13
2022-12-04T10:09:03.432Z,10.33
2022-12-04T10:12:13.172Z,11.17
2022-12-04T10:15:06.919Z,11.70
2022-12-04T10:17:56.165Z,11.23
2022-12-04T10:20:41.563Z,10.47
2022-12-04T10:23:19.664Z,11.03
2022-12-04T10:25:47.154Z,10.47
2022-12-04T10:28:25.624Z,11.50
2022-12-04T10:30:55.272Z,10.70
2022-12-04T10:33:53.262Z,9.40
2022-12-04T10:36:23.336Z,11.30
2022-12-04T10:38:57.538Z,10.17
2022-12-04T10:41:49.221Z,10.43
2022-12-04T10:44:17.309Z,10.30
2022-12-04T10:46:46.396Z,9.80
2022-12-04T10:49:24.969Z,11.67
2022-12-04T10:51:52.139Z,9.57
2022-12-04T10:54:21.950Z,10.47
2022-12-04T10:56:59.957Z,10.60
2022-12-04T10:59:27.719Z,12.87
2022-12-04T11:02:12.419Z,10.03
2022-12-04T11:04:41.872Z,9.93
2022-12-04T11:07:21.760Z,10.83
2022-12-04T11:10:07.706Z,10.87
2022-12-04T11:12:34.351Z,9.90
2022-12-04T11:15:19.005Z,9.67
2022-12-04T11:17:45.607Z,10.77
2022-12-04T11:20:26.487Z,9.87
2022-12-04T11:22:58.538Z,10.20
2022-12-04T11:25:27.503Z,10.23
2022-12-04T11:27:56.921Z,8.57
2022-12-04T11:30:32.834Z,8.80
2022-12-04T11:33:00.058Z,9.57
2022-12-04T11:35:29.206Z,9.70
2022-12-04T11:38:00.899Z,9.60
2022-12-04T11:40:28.208Z,8.87
2022-12-04T11:43:11.084Z,9.27
2022-12-04T11:45:37.827Z,9.97
2022-12-04T11:48:14.554Z,9.00
2022-12-04T11:50:47.090Z,9.20
2022-12-04T11:53:32.273Z,8.40
2022-12-04T11:56:28.120Z,10.37
2022-12-04T11:59:25.680Z,9.33
2022-12-04T12:02:17.192Z,9.30
2022-12-04T12:04:46.606Z,7.67
2022-12-04T12:07:32.447Z,8.77
2022-12-04T12:10:25.026Z,8.83
2022-12-04T12:13:17.636Z,9.47
2022-12-04T12:16:11.932Z,9.83
2022-12-04T12:18:49.694Z,8.43
2022-12-04T12:21:26.224Z,9.37
2022-12-04T12:24:01.739Z,10.03
2022-12-04T12:26:44.399Z,8.87
2022-12-04T12:29:18.524Z,9.47
2022-12-04T12:31:52.470Z,8.97
2022-12-04T12:34:34.033Z,9.50
2022-12-04T12:37:14.824Z,9.17
2022-12-04T12:39:50.345Z,9.43
2022-12-04T12:42:39.349Z,10.47
2022-12-04T12:45:36.005Z,8.87
2022-12-04T12:48:25.476Z,10.07
2022-12-04T12:51:14.914Z,10.17
2022-12-04T12:53:48.148Z,9.03
2022-12-04T12:56:16.241Z,9.40
2022-12-04T12:58:55.790Z,10.27
2022-12-04T13:01:23.778Z,8.90
2022-12-04T13:04:10.723Z,8.57
2022-12-04T13:06:39.709Z,8.37
2022-12-04T13:09:12.214Z,9.70
2022-12-04T13:11:39.332Z,7.93
2022-12-04T13:14:06.217Z,9.43
2022-12-04T13:16:47.928Z,8.47
2022-12-04T13:19:41.521Z,9.67
2022-12-04T13:22:28.486Z,8.50
2022-12-04T13:25:12.351Z,8.77
2022-12-04T13:28:06.680Z,8.37
2022-12-04T13:30:47.628Z,6.23
2022-12-04T13:33:52.153Z,8.47
2022-12-04T13:36:43.293Z,8.63
2022-12-04T13:39:24.705Z,9.27
2022-12-04T13:42:00.048Z,6.60
2022-12-04T13:44:27.662Z,8.30
2022-12-04T13:47:06.812Z,7.23
2022-12-04T13:49:38.753Z,10.13
2022-12-04T13:52:21.506Z,7.77
2022-12-04T13:54:58.936Z,8.40
2022-12-04T13:57:27.308Z,7.00
2022-12-04T14:00:20.590Z,7.97
2022-12-04T14:02:53.010Z,8.27
2022-12-04T14:05:30.647Z,8.03
2022-12-04T14:08:08.003Z,7.00
2022-12-04T14:10:37.250Z,8.60
2022-12-04T14:13:24.547Z,7.77
2022-12-04T14:16:07.079Z,9.80
2022-12-04T14:18:34.138Z,9.33
2022-12-04T14:21:04.663Z,8.53
2022-12-04T14:23:36.057Z,7.27
2022-12-04T14:26:05.171Z,9.50
2022-12-04T14:28:34.844Z,8.33
2022-12-04T14:31:08.387Z,7.87
2022-12-04T14:33:39.799Z,9.20
2022-12-04T14:36:15.555Z,9.37
2022-12-04T14:38:47.781Z,7.67
2022-12-04T14:41:14.662Z,8.73
2022-12-04T14:43:44.729Z,8.43
2022-12-04T14:46:25.185Z,8.87
2022-12-04T14:49:13.255Z,8.93
2022-12-04T14:51:45.936Z,9.13
2022-12-04T14:54:21.259Z,8.40
2022-12-04T14:57:09.302Z,8.67
2022-12-04T14:59:45.480Z,8.60
2022-12-04T15:02:20.387Z,9.03
2022-12-04T15:04:49.012Z,8.53
2022-12-04T15:07:21.072Z,8.63
2022-12-04T15:10:13.255Z,7.23
2022-12-04T15:12:50.284Z,8.50
2022-12-04T15:15:22.011Z,9.17
2022-12-04T15:17:58.287Z,9.13
2022-12-04T15:20:25.729Z,8.53
2022-12-04T15:22:53.957Z,9.53
2022-12-04T15:25:24.628Z,7.37
2022-12-04T15:27:53.527Z,9.70
2022-12-04T15:30:22.084Z,8.73
2022-12-04T15:32:51.536Z,8.73
2022-12-04T15:35:46.806Z,10.40
2022-12-04T15:38:14.902Z,9.93
2022-12-04T15:41:01.676Z,8.53
2022-12-04T15:43:32.850Z,10.03
2022-12-04T15:45:59.988Z,10.03
2022-12-04T15:48:31.268Z,10.17
2022-12-04T15:51:03.704Z,9.80
2022-12-04T15:53:37.162Z,11.37
2022-12-04T15:56:06.785Z,9.10
2022-12-04T15:58:35.863Z,9.33
2022-12-04T16:01:04.643Z,9.23
2022-12-04T16:03:38.487Z,11.47
2022-12-04T16:06:26.505Z,8.30
2022-12-04T16:08:55.866Z,11.53
2022-12-04T16:11:29.765Z,10.13
2022-12-04T16:14:15.424Z,10.03
2022-12-04T16:16:48.340Z,10.27
2022-12-04T16:19:20.643Z,10.73
2022-12-04T16:21:47.273Z,10.07
2022-12-04T16:24:14.114Z,10.47
2022-12-04T16:26:41.475Z,9.97
2022-12-04T16:29:08.256Z,11.77
2022-12-04T16:31:35.393Z,11.70
2022-12-04T16:34:02.031Z,12.30
2022-12-04T16:36:28.696Z,10.27
2022-12-04T16:38:55.495Z,12.07
2022-12-04T16:41:22.123Z,10.47
2022-12-04T16:43:56.874Z,9.77
2022-12-04T16:46:25.287Z,10.07
2022-12-04T16:48:52.506Z,11.47
2022-12-04T16:51:25.548Z,12.23
2022-12-04T16:53:53.424Z,10.03
2022-12-04T16:56:20.616Z,13.13
2022-12-04T16:58:47.536Z,11.97
2022-12-04T17:01:25.555Z,12.93
2022-12-04T17:03:52.721Z,14.17
2022-12-04T17:06:19.367Z,11.33
2022-12-04T17:08:46.155Z,13.20
2022-12-04T17:11:14.545Z,12.33
2022-12-04T17:13:41.746Z,13.13
2022-12-04T17:16:08.946Z,13.17
2022-12-04T17:18:35.855Z,13.33
2022-12-04T17:21:07.067Z,16.43
2022-12-04T17:23:33.975Z,14.73
2022-12-04T17:26:05.120Z,13.77
2022-12-04T17:28:32.350Z,12.10
2022-12-04T17:30:59.269Z,15.00
2022-12-04T17:33:26.158Z,15.70
2022-12-04T17:35:54.444Z,14.73
2022-12-04T17:38:21.340Z,14.93
2022-12-04T17:41:08.851Z,13.93
2022-12-04T17:43:36.518Z,14.30
2022-12-04T17:46:09.330Z,14.80
2022-12-04T17:48:36.571Z,16.07
2022-12-04T17:51:11.782Z,15.80
2022-12-04T17:53:43.160Z,15.97
2022-12-04T17:56:13.012Z,14.93
2022-12-04T17:58:40.178Z,14.73
2022-12-04T18:01:12.518Z,16.30
2022-12-04T18:03:39.724Z,14.27
2022-12-04T18:06:24.054Z,14.40
2022-12-04T18:08:51.035Z,13.37
2022-12-04T18:11:20.717Z,14.33
2022-12-04T18:13:48.915Z,13.33
2022-12-04T18:16:15.832Z,11.70
2022-12-04T18:18:42.619Z,16.47
2022-12-04T18:21:11.100Z,12.47
2022-12-04T18:23:44.385Z,15.23
2022-12-04T18:26:18.513Z,14.07
2022-12-04T18:28:46.433Z,13.83
2022-12-04T18:31:14.520Z,13.67
2022-12-04T18:33:42.381Z,13.93
2022-12-04T18:36:15.372Z,16.03
2022-12-04T18:38:42.144Z,12.13
2022-12-04T18:41:10.825Z,13.60
2022-12-04T18:43:39.897Z,14.47
2022-12-04T18:46:09.186Z,14.47
2022-12-04T18:48:36.912Z,15.03
2022-12-04T18:51:15.293Z,13.73
2022-12-04T18:53:42.496Z,11.60
2022-12-04T18:56:09.310Z,13.17
2022-12-04T18:58:35.996Z,13.13
2022-12-04T19:01:10.299Z,11.93
2022-12-04T19:03:37.403Z,15.40
2022-12-04T19:06:04.316Z,14.97
2022-12-04T19:08:34.343Z,15.37
2022-12-04T19:11:11.671Z,13.87
2022-12-04T19:13:38.557Z,10.87
2022-12-04T19:16:07.434Z,13.47
2022-12-04T19:18:34.498Z,14.40
2022-12-04T19:21:01.266Z,12.63
2022-12-04T19:23:28.034Z,14.03
2022-12-04T19:25:59.544Z,13.27
2022-12-04T19:28:27.612Z,15.40
2022-12-04T19:30:54.963Z,14.20
2022-12-04T19:33:23.055Z,14.93
2022-12-04T19:36:00.894Z,12.97
2022-12-04T19:38:28.891Z,12.17
2022-12-04T19:41:09.312Z,11.73
2022-12-04T19:43:40.919Z,12.80
2022-12-04T19:46:08.499Z,11.70
2022-12-04T19:48:37.785Z,11.93
2022-12-04T19:51:09.964Z,12.27
2022-12-04T19:53:40.920Z,11.03
2022-12-04T19:56:14.122Z,13.20
2022-12-04T19:58:40.932Z,13.10
2022-12-04T20:01:10.250Z,13.67
2022-12-04T20:03:37.299Z,11.90
2022-12-04T20:06:05.749Z,11.93
2022-12-04T20:08:32.899Z,12.30
2022-12-04T20:11:15.846Z,12.33
2022-12-04T20:13:43.643Z,13.03
2022-12-04T20:16:12.553Z,10.87
2022-12-04T20:18:40.063Z,10.77
2022-12-04T20:21:16.044Z,11.10
2022-12-04T20:23:50.936Z,12.03
2022-12-04T20:26:22.916Z,11.03
2022-12-04T20:28:49.775Z,13.07
2022-12-04T20:31:20.631Z,12.23
2022-12-04T20:33:49.188Z,12.10
2022-12-04T20:36:18.664Z,11.23
2022-12-04T20:38:45.840Z,9.47
2022-12-04T20:41:15.895Z,12.20
2022-12-04T20:43:43.738Z,10.87
2022-12-04T20:46:18.996Z,10.97
2022-12-04T20:48:49.411Z,7.93
2022-12-04T20:51:18.634Z,10.37
2022-12-04T20:53:46.563Z,10.10
2022-12-04T20:56:14.383Z,12.17
2022-12-04T20:58:41.611Z,11.17
2022-12-04T21:01:10.050Z,11.70
2022-12-04T21:03:36.985Z,10.83
2022-12-04T21:06:04.993Z,10.67
2022-12-04T21:08:50.702Z,10.77
2022-12-04T21:11:17.491Z,11.93
2022-12-04T21:14:02.858Z,10.67
2022-12-04T21:16:29.652Z,9.57
2022-12-04T21:18:56.465Z,10.27
2022-12-04T21:21:23.295Z,9.57
2022-12-04T21:23:49.999Z,10.33
2022-12-04T21:26:18.693Z,10.97
2022-12-04T21:28:45.453Z,9.63
2022-12-04T21:31:12.408Z,9.73
2022-12-04T21:33:39.110Z,11.20
2022-12-04T21:36:08.855Z,10.60
2022-12-04T21:38:37.339Z,11.07
2022-12-04T21:41:06.055Z,9.73
2022-12-04T21:43:33.516Z,10.07
2022-12-04T21:46:09.816Z,10.27
2022-12-04T21:48:37.196Z,10.80
2022-12-04T21:51:16.844Z,10.60
2022-12-04T21:53:55.039Z,9.87
2022-12-04T21:56:22.619Z,10.10
2022-12-04T21:58:49.470Z,9.30
2022-12-04T22:01:17.643Z,11.67
2022-12-04T22:03:44.477Z,11.50
2022-12-04T22:06:11.357Z,10.70
2022-12-04T22:08:39.774Z,10.90
2022-12-04T22:11:10.043Z,11.20
2022-12-04T22:13:37.662Z,10.47
2022-12-04T22:16:07.959Z,11.10
2022-12-04T22:18:35.010Z,10.80
2022-12-04T22:21:07.571Z,9.23
2022-12-04T22:23:34.871Z,11.70
2022-12-04T22:26:13.648Z,11.13
2022-12-04T22:28:41.043Z,10.70
2022-12-04T22:31:13.278Z,10.57
2022-12-04T22:33:40.357Z,12.27
2022-12-04T22:36:09.702Z,10.87
2022-12-04T22:38:52.660Z,9.57
2022-12-04T22:41:27.713Z,11.90
2022-12-04T22:43:54.490Z,8.93
2022-12-04T22:46:21.302Z,11.30
2022-12-04T22:48:48.124Z,8.87
2022-12-04T22:51:18.120Z,10.30
2022-12-04T22:53:47.336Z,9.73
2022-12-04T22:56:16.546Z,10.93
2022-12-04T22:58:44.282Z,9.30
2022-12-04T23:01:11.680Z,10.03
2022-12-04T23:03:38.600Z,9.37
2022-12-04T23:06:05.735Z,10.40
2022-12-04T23:08:33.502Z,8.37
2022-12-04T23:11:05.129Z,9.20
2022-12-04T23:13:31.890Z,10.40
2022-12-04T23:15:59.534Z,10.00
2022-12-04T23:18:28.664Z,9.23
2022-12-04T23:21:11.483Z,9.87
2022-12-04T23:23:39.892Z,9.00
2022-12-04T23:26:08.821Z,10.57
2022-12-04T23:28:35.919Z,8.63
2022-12-04T23:31:03.816Z,8.63
2022-12-04T23:33:31.336Z,8.93
2022-12-04T23:35:59.809Z,10.53
2022-12-04T23:38:27.737Z,9.43
2022-12-04T23:41:08.983Z,8.67
2022-12-04T23:43:36.553Z,10.33
2022-12-04T23:46:10.380Z,7.90
2022-12-04T23:48:38.333Z,8.97
2022-12-04T23:51:05.192Z,9.17
2022-12-04T23:53:31.936Z,10.40
2022-12-04T23:56:00.714Z,9.17
2022-12-04T23:58:27.424Z,9.60
